sensor_id;sensor_type;location;lat;lon;timestamp;P1;durP1;ratioP1;P2;durP2;ratioP2
68176;SDS011;56478;50.982;7.032;2023-07-22T00:00:32;9.32;;;6.07;;
68176;SDS011;56478;50.982;7.032;2023-07-22T00:02:57;7.00;;;6.33;;
68176;SDS011;56478;50.982;7.032;2023-07-22T00:05:25;6.53;;;5.88;;
68176;SDS011;56478;50.982;7.032;2023-07-22T00:07:54;6.90;;;6.17;;
68176;SDS011;56478;50.982;7.032;2023-07-22T00:10:19;6.70;;;5.93;;
68176;SDS011;56478;50.982;7.032;2023-07-22T00:12:50;9.90;;;6.00;;
68176;SDS011;56478;50.982;7.032;2023-07-22T00:15:16;7.47;;;5.90;;
68176;SDS011;56478;50.982;7.032;2023-07-22T00:17:49;9.48;;;5.95;;
68176;SDS011;56478;50.982;7.032;2023-07-22T00:20:20;7.38;;;6.03;;
68176;SDS011;56478;50.982;7.032;2023-07-22T00:22:45;7.63;;;6.00;;
68176;SDS011;56478;50.982;7.032;2023-07-22T00:25:21;10.27;;;5.88;;
68176;SDS011;56478;50.982;7.032;2023-07-22T00:27:47;6.85;;;5.90;;
68176;SDS011;56478;50.982;7.032;2023-07-22T00:30:28;7.20;;;5.78;;
68176;SDS011;56478;50.982;7.032;2023-07-22T00:33:05;9.88;;;6.28;;
68176;SDS011;56478;50.982;7.032;2023-07-22T00:35:41;9.27;;;6.43;;
68176;SDS011;56478;50.982;7.032;2023-07-22T00:38:16;8.30;;;6.22;;
68176;SDS011;56478;50.982;7.032;2023-07-22T00:40:52;7.13;;;6.15;;
68176;SDS011;56478;50.982;7.032;2023-07-22T00:43:22;7.97;;;5.60;;
68176;SDS011;56478;50.982;7.032;2023-07-22T00:45:56;7.07;;;6.35;;
68176;SDS011;56478;50.982;7.032;2023-07-22T00:48:31;7.28;;;6.18;;
68176;SDS011;56478;50.982;7.032;2023-07-22T00:50:57;11.10;;;5.78;;
68176;SDS011;56478;50.982;7.032;2023-07-22T00:53:23;11.85;;;6.43;;
68176;SDS011;56478;50.982;7.032;2023-07-22T00:55:48;9.38;;;6.18;;
68176;SDS011;56478;50.982;7.032;2023-07-22T00:58:17;7.55;;;6.68;;
68176;SDS011;56478;50.982;7.032;2023-07-22T01:00:46;9.35;;;6.43;;
68176;SDS011;56478;50.982;7.032;2023-07-22T01:03:13;8.65;;;6.47;;
68176;SDS011;56478;50.982;7.032;2023-07-22T01:05:42;8.70;;;6.63;;
68176;SDS011;56478;50.982;7.032;2023-07-22T01:08:08;8.70;;;6.60;;
68176;SDS011;56478;50.982;7.032;2023-07-22T01:10:33;8.07;;;6.60;;
68176;SDS011;56478;50.982;7.032;2023-07-22T01:13:03;7.82;;;6.38;;
68176;SDS011;56478;50.982;7.032;2023-07-22T01:15:29;11.77;;;7.70;;
68176;SDS011;56478;50.982;7.032;2023-07-22T01:17:55;12.65;;;9.23;;
68176;SDS011;56478;50.982;7.032;2023-07-22T01:20:21;10.65;;;8.75;;
68176;SDS011;56478;50.982;7.032;2023-07-22T01:22:51;10.15;;;7.47;;
68176;SDS011;56478;50.982;7.032;2023-07-22T01:25:19;8.60;;;7.28;;
68176;SDS011;56478;50.982;7.032;2023-07-22T01:30:12;8.30;;;6.13;;
68176;SDS011;56478;50.982;7.032;2023-07-22T01:32:41;6.88;;;6.18;;
68176;SDS011;56478;50.982;7.032;2023-07-22T01:35:07;8.43;;;5.97;;
68176;SDS011;56478;50.982;7.032;2023-07-22T01:37:34;8.05;;;6.38;;
68176;SDS011;56478;50.982;7.032;2023-07-22T01:40:00;8.07;;;6.50;;
68176;SDS011;56478;50.982;7.032;2023-07-22T01:42:36;7.70;;;6.55;;
68176;SDS011;56478;50.982;7.032;2023-07-22T01:45:01;9.45;;;6.22;;
68176;SDS011;56478;50.982;7.032;2023-07-22T01:47:27;7.70;;;6.30;;
68176;SDS011;56478;50.982;7.032;2023-07-22T01:49:57;9.00;;;6.43;;
68176;SDS011;56478;50.982;7.032;2023-07-22T01:52:22;8.32;;;6.57;;
68176;SDS011;56478;50.982;7.032;2023-07-22T01:54:48;12.73;;;7.03;;
68176;SDS011;56478;50.982;7.032;2023-07-22T01:57:14;9.30;;;7.13;;
68176;SDS011;56478;50.982;7.032;2023-07-22T01:59:39;9.35;;;6.38;;
68176;SDS011;56478;50.982;7.032;2023-07-22T02:02:05;8.68;;;6.22;;
68176;SDS011;56478;50.982;7.032;2023-07-22T02:04:30;7.78;;;6.28;;
68176;SDS011;56478;50.982;7.032;2023-07-22T02:06:56;10.35;;;7.45;;
68176;SDS011;56478;50.982;7.032;2023-07-22T02:09:21;10.90;;;6.85;;
68176;SDS011;56478;50.982;7.032;2023-07-22T02:11:49;9.80;;;7.45;;
68176;SDS011;56478;50.982;7.032;2023-07-22T02:14:15;8.20;;;6.33;;
68176;SDS011;56478;50.982;7.032;2023-07-22T02:16:41;9.85;;;6.82;;
68176;SDS011;56478;50.982;7.032;2023-07-22T02:19:09;9.30;;;6.70;;
68176;SDS011;56478;50.982;7.032;2023-07-22T02:21:36;8.80;;;6.18;;
68176;SDS011;56478;50.982;7.032;2023-07-22T02:24:02;8.48;;;6.57;;
68176;SDS011;56478;50.982;7.032;2023-07-22T02:26:35;9.80;;;6.75;;
68176;SDS011;56478;50.982;7.032;2023-07-22T02:29:01;9.05;;;6.60;;
68176;SDS011;56478;50.982;7.032;2023-07-22T02:31:27;7.75;;;6.43;;
68176;SDS011;56478;50.982;7.032;2023-07-22T02:33:53;7.53;;;6.55;;
68176;SDS011;56478;50.982;7.032;2023-07-22T02:36:26;8.05;;;6.45;;
68176;SDS011;56478;50.982;7.032;2023-07-22T02:38:56;7.25;;;6.20;;
68176;SDS011;56478;50.982;7.032;2023-07-22T02:41:22;8.67;;;6.40;;
68176;SDS011;56478;50.982;7.032;2023-07-22T02:43:50;9.32;;;6.70;;
68176;SDS011;56478;50.982;7.032;2023-07-22T02:46:18;13.00;;;6.50;;
68176;SDS011;56478;50.982;7.032;2023-07-22T02:48:57;9.13;;;6.50;;
68176;SDS011;56478;50.982;7.032;2023-07-22T02:51:25;8.88;;;6.85;;
68176;SDS011;56478;50.982;7.032;2023-07-22T02:54:04;7.05;;;6.35;;
68176;SDS011;56478;50.982;7.032;2023-07-22T02:56:35;9.23;;;6.68;;
68176;SDS011;56478;50.982;7.032;2023-07-22T02:59:10;8.15;;;6.47;;
68176;SDS011;56478;50.982;7.032;2023-07-22T03:01:43;8.23;;;6.60;;
68176;SDS011;56478;50.982;7.032;2023-07-22T03:04:10;8.27;;;6.85;;
68176;SDS011;56478;50.982;7.032;2023-07-22T03:06:37;8.20;;;6.53;;
68176;SDS011;56478;50.982;7.032;2023-07-22T03:09:06;7.68;;;6.43;;
68176;SDS011;56478;50.982;7.032;2023-07-22T03:11:32;7.38;;;6.68;;
68176;SDS011;56478;50.982;7.032;2023-07-22T03:13:59;7.10;;;6.40;;
68176;SDS011;56478;50.982;7.032;2023-07-22T03:16:27;8.60;;;6.80;;
68176;SDS011;56478;50.982;7.032;2023-07-22T03:18:56;9.85;;;6.47;;
68176;SDS011;56478;50.982;7.032;2023-07-22T03:21:21;7.63;;;6.38;;
68176;SDS011;56478;50.982;7.032;2023-07-22T03:23:54;8.07;;;6.07;;
68176;SDS011;56478;50.982;7.032;2023-07-22T03:26:40;7.80;;;6.00;;
68176;SDS011;56478;50.982;7.032;2023-07-22T03:29:09;6.63;;;5.93;;
68176;SDS011;56478;50.982;7.032;2023-07-22T03:31:34;7.95;;;6.32;;
68176;SDS011;56478;50.982;7.032;2023-07-22T03:34:00;6.88;;;5.88;;
68176;SDS011;56478;50.982;7.032;2023-07-22T03:36:27;8.70;;;6.43;;
68176;SDS011;56478;50.982;7.032;2023-07-22T03:38:58;8.43;;;5.88;;
68176;SDS011;56478;50.982;7.032;2023-07-22T03:41:25;7.72;;;6.30;;
68176;SDS011;56478;50.982;7.032;2023-07-22T03:43:55;6.75;;;5.93;;
68176;SDS011;56478;50.982;7.032;2023-07-22T03:46:22;11.95;;;6.47;;
68176;SDS011;56478;50.982;7.032;2023-07-22T03:48:50;7.63;;;6.15;;
68176;SDS011;56478;50.982;7.032;2023-07-22T03:51:19;6.45;;;5.78;;
68176;SDS011;56478;50.982;7.032;2023-07-22T03:53:44;7.93;;;5.65;;
68176;SDS011;56478;50.982;7.032;2023-07-22T03:56:10;7.88;;;6.07;;
68176;SDS011;56478;50.982;7.032;2023-07-22T03:58:35;12.45;;;6.28;;
68176;SDS011;56478;50.982;7.032;2023-07-22T04:01:03;8.70;;;5.95;;
68176;SDS011;56478;50.982;7.032;2023-07-22T04:03:29;6.70;;;5.97;;
68176;SDS011;56478;50.982;7.032;2023-07-22T04:05:55;10.55;;;6.25;;
68176;SDS011;56478;50.982;7.032;2023-07-22T04:08:36;6.78;;;6.10;;
68176;SDS011;56478;50.982;7.032;2023-07-22T04:11:02;7.05;;;5.82;;
68176;SDS011;56478;50.982;7.032;2023-07-22T04:13:27;6.63;;;5.93;;
68176;SDS011;56478;50.982;7.032;2023-07-22T04:15:53;7.00;;;5.43;;
68176;SDS011;56478;50.982;7.032;2023-07-22T04:18:19;6.97;;;6.28;;
68176;SDS011;56478;50.982;7.032;2023-07-22T04:20:45;6.65;;;5.85;;
68176;SDS011;56478;50.982;7.032;2023-07-22T04:23:21;8.40;;;5.95;;
68176;SDS011;56478;50.982;7.032;2023-07-22T04:25:47;7.25;;;6.00;;
68176;SDS011;56478;50.982;7.032;2023-07-22T04:28:13;6.28;;;5.68;;
68176;SDS011;56478;50.982;7.032;2023-07-22T04:30:38;7.68;;;5.95;;
68176;SDS011;56478;50.982;7.032;2023-07-22T04:33:05;6.47;;;5.78;;
68176;SDS011;56478;50.982;7.032;2023-07-22T04:35:33;9.53;;;6.00;;
68176;SDS011;56478;50.982;7.032;2023-07-22T04:38:02;7.90;;;5.45;;
68176;SDS011;56478;50.982;7.032;2023-07-22T04:40:42;6.50;;;5.90;;
68176;SDS011;56478;50.982;7.032;2023-07-22T04:43:08;9.23;;;6.03;;
68176;SDS011;56478;50.982;7.032;2023-07-22T04:45:46;9.30;;;6.38;;
68176;SDS011;56478;50.982;7.032;2023-07-22T04:48:18;7.70;;;6.00;;
68176;SDS011;56478;50.982;7.032;2023-07-22T04:50:45;8.82;;;5.93;;
68176;SDS011;56478;50.982;7.032;2023-07-22T04:53:11;8.38;;;6.03;;
68176;SDS011;56478;50.982;7.032;2023-07-22T04:55:40;7.93;;;5.95;;
68176;SDS011;56478;50.982;7.032;2023-07-22T04:58:13;7.05;;;6.05;;
68176;SDS011;56478;50.982;7.032;2023-07-22T05:00:46;6.60;;;5.90;;
68176;SDS011;56478;50.982;7.032;2023-07-22T05:03:14;10.73;;;6.17;;
68176;SDS011;56478;50.982;7.032;2023-07-22T05:05:43;8.45;;;6.07;;
68176;SDS011;56478;50.982;7.032;2023-07-22T05:08:15;7.78;;;6.13;;
68176;SDS011;56478;50.982;7.032;2023-07-22T05:10:44;6.75;;;5.57;;
68176;SDS011;56478;50.982;7.032;2023-07-22T05:13:19;10.70;;;6.20;;
68176;SDS011;56478;50.982;7.032;2023-07-22T05:15:45;6.30;;;5.65;;
68176;SDS011;56478;50.982;7.032;2023-07-22T05:18:10;7.38;;;5.57;;
68176;SDS011;56478;50.982;7.032;2023-07-22T05:20:43;6.88;;;5.75;;
68176;SDS011;56478;50.982;7.032;2023-07-22T05:23:32;7.50;;;5.85;;
68176;SDS011;56478;50.982;7.032;2023-07-22T05:25:56;6.32;;;5.53;;
68176;SDS011;56478;50.982;7.032;2023-07-22T05:28:32;9.00;;;5.47;;
68176;SDS011;56478;50.982;7.032;2023-07-22T05:31:08;9.32;;;5.93;;
68176;SDS011;56478;50.982;7.032;2023-07-22T05:33:41;7.25;;;5.55;;
68176;SDS011;56478;50.982;7.032;2023-07-22T05:36:20;6.10;;;5.20;;
68176;SDS011;56478;50.982;7.032;2023-07-22T05:38:57;7.55;;;6.22;;
68176;SDS011;56478;50.982;7.032;2023-07-22T05:41:43;6.60;;;5.88;;
68176;SDS011;56478;50.982;7.032;2023-07-22T05:44:28;8.65;;;5.47;;
68176;SDS011;56478;50.982;7.032;2023-07-22T05:47:03;7.00;;;5.97;;
68176;SDS011;56478;50.982;7.032;2023-07-22T05:49:39;6.68;;;5.97;;
68176;SDS011;56478;50.982;7.032;2023-07-22T05:52:06;10.32;;;5.78;;
68176;SDS011;56478;50.982;7.032;2023-07-22T05:54:37;8.77;;;5.72;;
68176;SDS011;56478;50.982;7.032;2023-07-22T05:57:45;9.63;;;5.65;;
68176;SDS011;56478;50.982;7.032;2023-07-22T06:03:40;7.57;;;5.80;;
68176;SDS011;56478;50.982;7.032;2023-07-22T06:06:15;11.55;;;6.10;;
68176;SDS011;56478;50.982;7.032;2023-07-22T06:15:52;6.45;;;5.70;;
68176;SDS011;56478;50.982;7.032;2023-07-22T06:19:01;10.02;;;5.63;;
68176;SDS011;56478;50.982;7.032;2023-07-22T06:22:09;9.80;;;5.88;;
68176;SDS011;56478;50.982;7.032;2023-07-22T18:07:56;3.10;;;2.80;;
68176;SDS011;56478;50.982;7.032;2023-07-22T18:36:50;3.63;;;2.90;;
68176;SDS011;56478;50.982;7.032;2023-07-22T19:04:53;4.30;;;3.00;;
68176;SDS011;56478;50.982;7.032;2023-07-22T19:17:43;3.42;;;2.65;;
68176;SDS011;56478;50.982;7.032;2023-07-22T19:33:48;5.22;;;2.72;;
68176;SDS011;56478;50.982;7.032;2023-07-22T19:39:43;4.07;;;2.80;;
68176;SDS011;56478;50.982;7.032;2023-07-22T19:45:26;4.22;;;2.70;;
68176;SDS011;56478;50.982;7.032;2023-07-22T19:51:40;2.75;;;2.50;;
68176;SDS011;56478;50.982;7.032;2023-07-22T19:54:25;5.25;;;2.78;;
68176;SDS011;56478;50.982;7.032;2023-07-22T19:57:29;4.05;;;3.05;;
68176;SDS011;56478;50.982;7.032;2023-07-22T20:03:11;5.32;;;2.80;;
68176;SDS011;56478;50.982;7.032;2023-07-22T20:05:56;8.02;;;2.70;;
68176;SDS011;56478;50.982;7.032;2023-07-22T20:15:11;4.72;;;2.70;;
68176;SDS011;56478;50.982;7.032;2023-07-22T20:17:47;5.22;;;2.80;;
68176;SDS011;56478;50.982;7.032;2023-07-22T20:23:43;4.43;;;3.10;;
68176;SDS011;56478;50.982;7.032;2023-07-22T20:30:12;4.45;;;3.20;;
68176;SDS011;56478;50.982;7.032;2023-07-22T20:33:12;6.45;;;3.00;;
68176;SDS011;56478;50.982;7.032;2023-07-22T20:35:59;3.10;;;2.80;;
68176;SDS011;56478;50.982;7.032;2023-07-22T20:38:37;4.97;;;2.60;;
68176;SDS011;56478;50.982;7.032;2023-07-22T20:41:36;3.13;;;2.83;;
68176;SDS011;56478;50.982;7.032;2023-07-22T20:44:11;8.05;;;3.25;;
68176;SDS011;56478;50.982;7.032;2023-07-22T20:46:42;5.22;;;3.03;;
68176;SDS011;56478;50.982;7.032;2023-07-22T20:49:13;4.65;;;3.00;;
68176;SDS011;56478;50.982;7.032;2023-07-22T20:52:07;4.03;;;2.95;;
68176;SDS011;56478;50.982;7.032;2023-07-22T20:54:52;6.32;;;2.67;;
68176;SDS011;56478;50.982;7.032;2023-07-22T20:57:26;3.92;;;2.83;;
68176;SDS011;56478;50.982;7.032;2023-07-22T21:00:10;6.00;;;2.78;;
68176;SDS011;56478;50.982;7.032;2023-07-22T21:02:55;3.63;;;2.83;;
68176;SDS011;56478;50.982;7.032;2023-07-22T21:06:03;7.45;;;3.03;;
68176;SDS011;56478;50.982;7.032;2023-07-22T21:08:49;6.43;;;3.30;;
68176;SDS011;56478;50.982;7.032;2023-07-22T21:11:40;4.15;;;3.20;;
68176;SDS011;56478;50.982;7.032;2023-07-22T21:14:35;5.00;;;2.83;;
68176;SDS011;56478;50.982;7.032;2023-07-22T21:20:11;5.90;;;3.28;;
68176;SDS011;56478;50.982;7.032;2023-07-22T21:22:45;4.15;;;3.10;;
68176;SDS011;56478;50.982;7.032;2023-07-22T21:25:34;4.05;;;3.10;;
68176;SDS011;56478;50.982;7.032;2023-07-22T21:28:09;6.65;;;3.30;;
68176;SDS011;56478;50.982;7.032;2023-07-22T21:31:11;5.97;;;3.22;;
68176;SDS011;56478;50.982;7.032;2023-07-22T21:33:48;5.25;;;3.10;;
68176;SDS011;56478;50.982;7.032;2023-07-22T21:36:30;8.60;;;3.35;;
68176;SDS011;56478;50.982;7.032;2023-07-22T21:39:03;4.35;;;3.03;;
68176;SDS011;56478;50.982;7.032;2023-07-22T21:41:56;8.35;;;3.28;;
68176;SDS011;56478;50.982;7.032;2023-07-22T21:44:34;5.25;;;3.08;;
68176;SDS011;56478;50.982;7.032;2023-07-22T21:47:08;4.50;;;3.15;;
68176;SDS011;56478;50.982;7.032;2023-07-22T21:49:47;3.60;;;2.90;;
68176;SDS011;56478;50.982;7.032;2023-07-22T21:52:43;9.35;;;3.10;;
68176;SDS011;56478;50.982;7.032;2023-07-22T21:55:29;5.53;;;2.90;;
68176;SDS011;56478;50.982;7.032;2023-07-22T21:58:19;7.03;;;3.10;;
68176;SDS011;56478;50.982;7.032;2023-07-22T22:04:15;4.95;;;3.20;;
68176;SDS011;56478;50.982;7.032;2023-07-22T22:06:43;6.82;;;3.30;;
68176;SDS011;56478;50.982;7.032;2023-07-22T22:09:12;5.38;;;3.28;;
68176;SDS011;56478;50.982;7.032;2023-07-22T22:14:30;3.88;;;3.33;;
68176;SDS011;56478;50.982;7.032;2023-07-22T22:16:58;8.75;;;3.03;;
68176;SDS011;56478;50.982;7.032;2023-07-22T22:19:24;5.43;;;3.20;;
68176;SDS011;56478;50.982;7.032;2023-07-22T22:22:08;3.42;;;3.13;;
68176;SDS011;56478;50.982;7.032;2023-07-22T22:24:46;4.88;;;3.33;;
68176;SDS011;56478;50.982;7.032;2023-07-22T22:27:12;4.45;;;3.60;;
68176;SDS011;56478;50.982;7.032;2023-07-22T22:29:48;4.20;;;3.13;;
68176;SDS011;56478;50.982;7.032;2023-07-22T22:32:24;5.10;;;3.40;;
68176;SDS011;56478;50.982;7.032;2023-07-22T22:35:12;5.70;;;3.30;;
68176;SDS011;56478;50.982;7.032;2023-07-22T22:37:50;8.77;;;3.50;;
68176;SDS011;56478;50.982;7.032;2023-07-22T22:40:21;5.45;;;3.22;;
68176;SDS011;56478;50.982;7.032;2023-07-22T22:42:49;3.53;;;3.20;;
68176;SDS011;56478;50.982;7.032;2023-07-22T22:45:17;4.68;;;3.38;;
68176;SDS011;56478;50.982;7.032;2023-07-22T22:47:43;4.45;;;3.17;;
68176;SDS011;56478;50.982;7.032;2023-07-22T22:52:39;4.65;;;3.40;;
68176;SDS011;56478;50.982;7.032;2023-07-22T22:55:10;8.35;;;3.33;;
68176;SDS011;56478;50.982;7.032;2023-07-22T22:57:36;5.03;;;3.38;;
68176;SDS011;56478;50.982;7.032;2023-07-22T23:00:11;3.58;;;3.28;;
68176;SDS011;56478;50.982;7.032;2023-07-22T23:02:49;3.55;;;3.17;;
68176;SDS011;56478;50.982;7.032;2023-07-22T23:05:17;4.57;;;3.50;;
68176;SDS011;56478;50.982;7.032;2023-07-22T23:07:45;8.82;;;3.25;;
68176;SDS011;56478;50.982;7.032;2023-07-22T23:10:10;5.47;;;3.35;;
68176;SDS011;56478;50.982;7.032;2023-07-22T23:12:38;5.85;;;3.13;;
68176;SDS011;56478;50.982;7.032;2023-07-22T23:15:05;7.78;;;3.33;;
68176;SDS011;56478;50.982;7.032;2023-07-22T23:17:38;3.50;;;3.20;;
68176;SDS011;56478;50.982;7.032;2023-07-22T23:20:04;3.88;;;3.38;;
68176;SDS011;56478;50.982;7.032;2023-07-22T23:22:33;4.78;;;3.40;;
68176;SDS011;56478;50.982;7.032;2023-07-22T23:25:08;10.20;;;3.50;;
68176;SDS011;56478;50.982;7.032;2023-07-22T23:27:34;6.22;;;3.60;;
68176;SDS011;56478;50.982;7.032;2023-07-22T23:30:03;6.50;;;3.38;;
68176;SDS011;56478;50.982;7.032;2023-07-22T23:32:34;5.63;;;3.45;;
68176;SDS011;56478;50.982;7.032;2023-07-22T23:35:01;8.38;;;3.70;;
68176;SDS011;56478;50.982;7.032;2023-07-22T23:37:31;3.78;;;3.30;;
68176;SDS011;56478;50.982;7.032;2023-07-22T23:39:57;4.43;;;3.55;;
68176;SDS011;56478;50.982;7.032;2023-07-22T23:42:22;8.65;;;3.50;;
68176;SDS011;56478;50.982;7.032;2023-07-22T23:44:48;6.65;;;3.80;;
68176;SDS011;56478;50.982;7.032;2023-07-22T23:47:13;5.93;;;3.63;;
68176;SDS011;56478;50.982;7.032;2023-07-22T23:49:39;6.05;;;3.63;;
68176;SDS011;56478;50.982;7.032;2023-07-22T23:52:05;4.30;;;3.90;;
68176;SDS011;56478;50.982;7.032;2023-07-22T23:54:30;4.15;;;3.50;;
68176;SDS011;56478;50.982;7.032;2023-07-22T23:56:56;8.95;;;3.95;;
68176;SDS011;56478;50.982;7.032;2023-07-22T23:59:21;8.45;;;4.03;;
